sensor_id;sensor_type;location;lat;lon;timestamp;P1;durP1;ratioP1;P2;durP2;ratioP2
20454;SDS011;10386;54.314;10.022;2023-12-20T06:47:36;25.33;;;4.30;;
20454;SDS011;10386;54.314;10.022;2023-12-20T06:50:04;27.93;;;5.10;;
20454;SDS011;10386;54.314;10.022;2023-12-20T06:52:32;28.77;;;4.47;;
20454;SDS011;10386;54.314;10.022;2023-12-20T06:54:58;26.23;;;3.80;;
20454;SDS011;10386;54.314;10.022;2023-12-20T06:57:26;16.30;;;3.37;;
20454;SDS011;10386;54.314;10.022;2023-12-20T06:59:53;26.13;;;3.97;;
20454;SDS011;10386;54.314;10.022;2023-12-20T07:02:20;20.83;;;3.87;;
20454;SDS011;10386;54.314;10.022;2023-12-20T07:04:49;19.37;;;3.70;;
20454;SDS011;10386;54.314;10.022;2023-12-20T07:07:16;25.83;;;3.77;;
20454;SDS011;10386;54.314;10.022;2023-12-20T07:09:42;19.97;;;3.60;;
20454;SDS011;10386;54.314;10.022;2023-12-20T07:12:09;28.40;;;4.17;;
20454;SDS011;10386;54.314;10.022;2023-12-20T07:14:36;24.07;;;3.60;;
20454;SDS011;10386;54.314;10.022;2023-12-20T07:17:03;20.40;;;3.77;;
20454;SDS011;10386;54.314;10.022;2023-12-20T07:19:30;21.73;;;3.57;;
20454;SDS011;10386;54.314;10.022;2023-12-20T07:21:57;22.97;;;4.30;;
20454;SDS011;10386;54.314;10.022;2023-12-20T07:24:24;17.30;;;3.20;;
20454;SDS011;10386;54.314;10.022;2023-12-20T07:26:51;21.23;;;3.23;;
20454;SDS011;10386;54.314;10.022;2023-12-20T07:29:19;25.43;;;3.77;;
20454;SDS011;10386;54.314;10.022;2023-12-20T07:31:46;27.93;;;3.50;;
20454;SDS011;10386;54.314;10.022;2023-12-20T07:34:13;13.50;;;3.53;;
20454;SDS011;10386;54.314;10.022;2023-12-20T07:36:40;12.83;;;3.07;;
20454;SDS011;10386;54.314;10.022;2023-12-20T07:39:07;22.10;;;3.63;;
20454;SDS011;10386;54.314;10.022;2023-12-20T07:41:34;20.43;;;3.53;;
20454;SDS011;10386;54.314;10.022;2023-12-20T07:44:01;23.03;;;4.07;;
20454;SDS011;10386;54.314;10.022;2023-12-20T07:46:28;19.27;;;3.90;;
20454;SDS011;10386;54.314;10.022;2023-12-20T07:48:56;24.60;;;4.00;;
20454;SDS011;10386;54.314;10.022;2023-12-20T07:51:23;23.00;;;3.70;;
20454;SDS011;10386;54.314;10.022;2023-12-20T07:53:51;19.73;;;3.83;;
20454;SDS011;10386;54.314;10.022;2023-12-20T07:56:19;24.13;;;3.57;;
20454;SDS011;10386;54.314;10.022;2023-12-20T07:58:46;22.90;;;3.60;;
20454;SDS011;10386;54.314;10.022;2023-12-20T08:01:19;16.63;;;3.30;;
20454;SDS011;10386;54.314;10.022;2023-12-20T08:03:48;19.07;;;3.63;;
20454;SDS011;10386;54.314;10.022;2023-12-20T08:06:16;21.23;;;4.67;;
20454;SDS011;10386;54.314;10.022;2023-12-20T08:08:44;13.37;;;3.33;;
20454;SDS011;10386;54.314;10.022;2023-12-20T08:11:20;11.60;;;2.90;;
20454;SDS011;10386;54.314;10.022;2023-12-20T08:13:47;15.20;;;2.93;;
20454;SDS011;10386;54.314;10.022;2023-12-20T08:16:15;17.60;;;2.80;;
20454;SDS011;10386;54.314;10.022;2023-12-20T08:18:44;13.13;;;2.77;;
20454;SDS011;10386;54.314;10.022;2023-12-20T08:21:11;9.50;;;2.50;;
20454;SDS011;10386;54.314;10.022;2023-12-20T08:23:39;14.40;;;2.60;;
20454;SDS011;10386;54.314;10.022;2023-12-20T08:26:07;9.93;;;2.83;;
20454;SDS011;10386;54.314;10.022;2023-12-20T08:28:34;12.30;;;3.17;;
20454;SDS011;10386;54.314;10.022;2023-12-20T08:31:03;11.40;;;3.00;;
20454;SDS011;10386;54.314;10.022;2023-12-20T08:33:30;4.50;;;1.53;;
20454;SDS011;10386;54.314;10.022;2023-12-20T08:35:57;14.53;;;2.17;;
20454;SDS011;10386;54.314;10.022;2023-12-20T08:38:24;6.87;;;1.90;;
20454;SDS011;10386;54.314;10.022;2023-12-20T08:40:51;9.03;;;1.87;;
20454;SDS011;10386;54.314;10.022;2023-12-20T08:43:18;4.33;;;1.70;;
20454;SDS011;10386;54.314;10.022;2023-12-20T08:45:45;6.37;;;1.57;;
20454;SDS011;10386;54.314;10.022;2023-12-20T08:48:12;4.37;;;1.33;;
20454;SDS011;10386;54.314;10.022;2023-12-20T08:50:39;5.63;;;1.80;;
20454;SDS011;10386;54.314;10.022;2023-12-20T08:53:07;2.10;;;1.30;;
20454;SDS011;10386;54.314;10.022;2023-12-20T08:55:33;5.23;;;1.33;;
20454;SDS011;10386;54.314;10.022;2023-12-20T08:58:00;2.90;;;1.30;;
20454;SDS011;10386;54.314;10.022;2023-12-20T09:00:28;4.33;;;1.30;;
20454;SDS011;10386;54.314;10.022;2023-12-20T09:02:56;6.10;;;1.43;;
20454;SDS011;10386;54.314;10.022;2023-12-20T09:05:24;3.67;;;1.50;;
20454;SDS011;10386;54.314;10.022;2023-12-20T09:07:51;1.33;;;1.03;;
20454;SDS011;10386;54.314;10.022;2023-12-20T09:10:18;2.20;;;1.00;;
20454;SDS011;10386;54.314;10.022;2023-12-20T09:12:51;6.03;;;1.50;;
20454;SDS011;10386;54.314;10.022;2023-12-20T09:15:25;4.83;;;1.87;;
20454;SDS011;10386;54.314;10.022;2023-12-20T09:17:53;5.23;;;1.30;;
20454;SDS011;10386;54.314;10.022;2023-12-20T09:20:21;3.90;;;1.33;;
20454;SDS011;10386;54.314;10.022;2023-12-20T09:22:50;3.80;;;1.33;;
20454;SDS011;10386;54.314;10.022;2023-12-20T09:25:18;6.53;;;1.50;;
20454;SDS011;10386;54.314;10.022;2023-12-20T09:27:46;6.20;;;2.00;;
20454;SDS011;10386;54.314;10.022;2023-12-20T09:30:16;3.97;;;1.47;;
20454;SDS011;10386;54.314;10.022;2023-12-20T09:32:53;11.60;;;1.80;;
20454;SDS011;10386;54.314;10.022;2023-12-20T09:35:21;6.73;;;1.70;;
20454;SDS011;10386;54.314;10.022;2023-12-20T09:37:49;10.37;;;1.93;;
20454;SDS011;10386;54.314;10.022;2023-12-20T09:40:20;4.87;;;1.73;;
20454;SDS011;10386;54.314;10.022;2023-12-20T09:45:25;6.63;;;1.80;;
20454;SDS011;10386;54.314;10.022;2023-12-20T09:47:53;11.73;;;1.70;;
20454;SDS011;10386;54.314;10.022;2023-12-20T09:50:23;9.80;;;1.83;;
20454;SDS011;10386;54.314;10.022;2023-12-20T09:52:52;11.43;;;2.20;;
20454;SDS011;10386;54.314;10.022;2023-12-20T09:55:23;9.83;;;2.20;;
20454;SDS011;10386;54.314;10.022;2023-12-20T09:57:53;11.60;;;2.50;;
20454;SDS011;10386;54.314;10.022;2023-12-20T10:00:21;10.13;;;2.47;;
20454;SDS011;10386;54.314;10.022;2023-12-20T10:02:58;17.23;;;2.50;;
20454;SDS011;10386;54.314;10.022;2023-12-20T10:05:28;10.63;;;2.30;;
20454;SDS011;10386;54.314;10.022;2023-12-20T10:07:57;12.37;;;2.70;;
20454;SDS011;10386;54.314;10.022;2023-12-20T10:10:26;17.90;;;2.27;;
20454;SDS011;10386;54.314;10.022;2023-12-20T10:13:11;12.90;;;2.10;;
20454;SDS011;10386;54.314;10.022;2023-12-20T10:15:40;10.33;;;2.80;;
20454;SDS011;10386;54.314;10.022;2023-12-20T10:18:09;6.17;;;2.00;;
20454;SDS011;10386;54.314;10.022;2023-12-20T10:20:40;12.00;;;2.27;;
20454;SDS011;10386;54.314;10.022;2023-12-20T10:23:11;12.70;;;2.30;;
20454;SDS011;10386;54.314;10.022;2023-12-20T10:25:40;6.73;;;2.20;;
20454;SDS011;10386;54.314;10.022;2023-12-20T10:28:10;13.83;;;2.03;;
20454;SDS011;10386;54.314;10.022;2023-12-20T10:30:44;9.90;;;1.83;;
20454;SDS011;10386;54.314;10.022;2023-12-20T10:33:11;8.13;;;1.70;;
20454;SDS011;10386;54.314;10.022;2023-12-20T10:35:39;7.87;;;2.43;;
20454;SDS011;10386;54.314;10.022;2023-12-20T10:38:11;12.77;;;1.90;;
20454;SDS011;10386;54.314;10.022;2023-12-20T10:40:41;6.93;;;2.40;;
20454;SDS011;10386;54.314;10.022;2023-12-20T10:43:11;11.57;;;2.00;;
20454;SDS011;10386;54.314;10.022;2023-12-20T10:45:44;17.07;;;2.20;;
20454;SDS011;10386;54.314;10.022;2023-12-20T10:48:12;19.33;;;2.37;;
20454;SDS011;10386;54.314;10.022;2023-12-20T10:50:39;7.93;;;2.40;;
20454;SDS011;10386;54.314;10.022;2023-12-20T10:53:08;12.90;;;2.40;;
20454;SDS011;10386;54.314;10.022;2023-12-20T10:55:36;21.83;;;2.50;;
20454;SDS011;10386;54.314;10.022;2023-12-20T10:58:07;11.77;;;2.47;;
20454;SDS011;10386;54.314;10.022;2023-12-20T11:00:44;9.90;;;2.13;;
20454;SDS011;10386;54.314;10.022;2023-12-20T11:03:13;8.67;;;1.77;;
20454;SDS011;10386;54.314;10.022;2023-12-20T11:05:49;7.40;;;1.53;;
20454;SDS011;10386;54.314;10.022;2023-12-20T11:11:06;6.03;;;1.57;;
20454;SDS011;10386;54.314;10.022;2023-12-20T11:13:41;9.53;;;2.07;;
20454;SDS011;10386;54.314;10.022;2023-12-20T11:16:16;10.77;;;1.83;;
20454;SDS011;10386;54.314;10.022;2023-12-20T11:18:46;17.13;;;2.47;;
20454;SDS011;10386;54.314;10.022;2023-12-20T11:21:15;8.17;;;2.10;;
20454;SDS011;10386;54.314;10.022;2023-12-20T11:23:42;11.23;;;2.13;;
20454;SDS011;10386;54.314;10.022;2023-12-20T11:26:19;8.67;;;2.40;;
20454;SDS011;10386;54.314;10.022;2023-12-20T11:34:50;15.00;;;2.50;;
20454;SDS011;10386;54.314;10.022;2023-12-20T11:37:18;11.87;;;2.73;;
20454;SDS011;10386;54.314;10.022;2023-12-20T11:39:54;11.33;;;3.10;;
20454;SDS011;10386;54.314;10.022;2023-12-20T11:42:32;13.60;;;2.57;;
20454;SDS011;10386;54.314;10.022;2023-12-20T11:45:15;17.73;;;2.83;;
20454;SDS011;10386;54.314;10.022;2023-12-20T11:47:50;9.30;;;2.80;;
20454;SDS011;10386;54.314;10.022;2023-12-20T11:50:22;13.37;;;2.30;;
20454;SDS011;10386;54.314;10.022;2023-12-20T11:52:54;16.33;;;3.33;;
20454;SDS011;10386;54.314;10.022;2023-12-20T12:51:38;12.17;;;2.73;;
20454;SDS011;10386;54.314;10.022;2023-12-20T12:54:05;14.93;;;3.50;;
20454;SDS011;10386;54.314;10.022;2023-12-20T12:56:33;20.33;;;3.80;;
20454;SDS011;10386;54.314;10.022;2023-12-20T12:59:05;17.13;;;3.70;;
20454;SDS011;10386;54.314;10.022;2023-12-20T13:01:34;14.57;;;3.57;;
20454;SDS011;10386;54.314;10.022;2023-12-20T13:04:18;18.90;;;3.83;;
20454;SDS011;10386;54.314;10.022;2023-12-20T13:07:16;20.23;;;4.03;;
20454;SDS011;10386;54.314;10.022;2023-12-20T13:10:19;22.60;;;3.77;;
20454;SDS011;10386;54.314;10.022;2023-12-20T13:12:59;16.63;;;3.83;;
20454;SDS011;10386;54.314;10.022;2023-12-20T13:15:45;13.10;;;3.77;;
20454;SDS011;10386;54.314;10.022;2023-12-20T13:18:22;14.07;;;4.03;;
20454;SDS011;10386;54.314;10.022;2023-12-20T13:20:50;21.37;;;4.10;;
20454;SDS011;10386;54.314;10.022;2023-12-20T13:23:18;14.93;;;3.60;;
20454;SDS011;10386;54.314;10.022;2023-12-20T13:25:46;16.90;;;4.33;;
20454;SDS011;10386;54.314;10.022;2023-12-20T13:28:15;17.10;;;4.40;;
20454;SDS011;10386;54.314;10.022;2023-12-20T13:30:47;29.53;;;4.83;;
20454;SDS011;10386;54.314;10.022;2023-12-20T13:33:17;24.10;;;5.00;;
20454;SDS011;10386;54.314;10.022;2023-12-20T13:35:47;18.27;;;4.37;;
20454;SDS011;10386;54.314;10.022;2023-12-20T13:38:35;17.53;;;4.37;;
20454;SDS011;10386;54.314;10.022;2023-12-20T13:41:40;25.57;;;4.73;;
20454;SDS011;10386;54.314;10.022;2023-12-20T13:44:13;19.23;;;4.40;;
20454;SDS011;10386;54.314;10.022;2023-12-20T13:46:50;18.50;;;4.53;;
20454;SDS011;10386;54.314;10.022;2023-12-20T13:49:18;19.83;;;4.90;;
20454;SDS011;10386;54.314;10.022;2023-12-20T13:51:59;17.90;;;6.33;;
20454;SDS011;10386;54.314;10.022;2023-12-20T13:55:00;20.30;;;6.50;;
20454;SDS011;10386;54.314;10.022;2023-12-20T13:58:00;21.93;;;4.77;;
20454;SDS011;10386;54.314;10.022;2023-12-20T14:01:25;16.07;;;4.60;;
20454;SDS011;10386;54.314;10.022;2023-12-20T14:04:53;17.37;;;4.97;;
20454;SDS011;10386;54.314;10.022;2023-12-20T14:08:31;18.47;;;5.43;;
20454;SDS011;10386;54.314;10.022;2023-12-20T14:12:07;17.07;;;5.03;;
20454;SDS011;10386;54.314;10.022;2023-12-20T14:15:32;18.43;;;5.63;;
20454;SDS011;10386;54.314;10.022;2023-12-20T14:19:01;13.77;;;4.80;;
20454;SDS011;10386;54.314;10.022;2023-12-20T14:22:18;21.97;;;4.90;;
20454;SDS011;10386;54.314;10.022;2023-12-20T14:28:33;27.63;;;5.63;;
20454;SDS011;10386;54.314;10.022;2023-12-20T14:31:39;22.47;;;5.37;;
20454;SDS011;10386;54.314;10.022;2023-12-20T14:34:59;15.83;;;4.60;;
20454;SDS011;10386;54.314;10.022;2023-12-20T14:37:43;17.43;;;5.03;;
20454;SDS011;10386;54.314;10.022;2023-12-20T14:40:11;20.70;;;5.67;;
20454;SDS011;10386;54.314;10.022;2023-12-20T14:42:42;22.37;;;6.63;;
20454;SDS011;10386;54.314;10.022;2023-12-20T14:45:10;27.67;;;5.50;;
20454;SDS011;10386;54.314;10.022;2023-12-20T14:47:37;24.73;;;6.93;;
20454;SDS011;10386;54.314;10.022;2023-12-20T14:58:58;19.03;;;5.70;;
20454;SDS011;10386;54.314;10.022;2023-12-20T15:01:28;13.60;;;5.10;;
20454;SDS011;10386;54.314;10.022;2023-12-20T15:03:55;17.63;;;5.57;;
20454;SDS011;10386;54.314;10.022;2023-12-20T15:06:23;13.07;;;5.37;;
20454;SDS011;10386;54.314;10.022;2023-12-20T15:08:52;19.03;;;4.83;;
20454;SDS011;10386;54.314;10.022;2023-12-20T15:11:26;18.83;;;5.23;;
20454;SDS011;10386;54.314;10.022;2023-12-20T15:13:55;21.30;;;5.27;;
20454;SDS011;10386;54.314;10.022;2023-12-20T15:16:27;23.00;;;5.47;;
20454;SDS011;10386;54.314;10.022;2023-12-20T15:19:02;28.10;;;5.87;;
20454;SDS011;10386;54.314;10.022;2023-12-20T15:21:34;29.37;;;5.90;;
20454;SDS011;10386;54.314;10.022;2023-12-20T15:24:11;22.33;;;6.47;;
20454;SDS011;10386;54.314;10.022;2023-12-20T15:26:58;25.03;;;5.80;;
20454;SDS011;10386;54.314;10.022;2023-12-20T15:29:40;33.70;;;6.73;;
20454;SDS011;10386;54.314;10.022;2023-12-20T15:32:18;26.73;;;6.27;;
20454;SDS011;10386;54.314;10.022;2023-12-20T15:34:45;31.73;;;5.83;;
20454;SDS011;10386;54.314;10.022;2023-12-20T15:37:15;25.37;;;5.83;;
20454;SDS011;10386;54.314;10.022;2023-12-20T15:39:55;26.40;;;5.40;;
20454;SDS011;10386;54.314;10.022;2023-12-20T15:42:23;26.27;;;5.93;;
20454;SDS011;10386;54.314;10.022;2023-12-20T15:44:54;25.70;;;5.83;;
20454;SDS011;10386;54.314;10.022;2023-12-20T15:47:26;28.97;;;6.13;;
20454;SDS011;10386;54.314;10.022;2023-12-20T15:49:54;30.70;;;6.40;;
20454;SDS011;10386;54.314;10.022;2023-12-20T15:52:30;28.50;;;5.77;;
20454;SDS011;10386;54.314;10.022;2023-12-20T15:55:00;25.07;;;6.70;;
20454;SDS011;10386;54.314;10.022;2023-12-20T15:57:30;24.90;;;6.37;;
20454;SDS011;10386;54.314;10.022;2023-12-20T16:00:15;20.03;;;5.43;;
20454;SDS011;10386;54.314;10.022;2023-12-20T16:03:15;20.30;;;5.73;;
20454;SDS011;10386;54.314;10.022;2023-12-20T16:05:54;27.27;;;5.60;;
20454;SDS011;10386;54.314;10.022;2023-12-20T16:08:38;25.10;;;5.60;;
20454;SDS011;10386;54.314;10.022;2023-12-20T16:11:12;23.07;;;5.43;;
20454;SDS011;10386;54.314;10.022;2023-12-20T16:13:41;22.47;;;5.10;;
20454;SDS011;10386;54.314;10.022;2023-12-20T16:16:15;26.47;;;6.73;;
20454;SDS011;10386;54.314;10.022;2023-12-20T16:18:43;21.67;;;5.07;;
20454;SDS011;10386;54.314;10.022;2023-12-20T16:21:16;20.23;;;5.60;;
20454;SDS011;10386;54.314;10.022;2023-12-20T16:24:22;19.87;;;5.47;;
20454;SDS011;10386;54.314;10.022;2023-12-20T16:26:53;21.67;;;5.73;;
20454;SDS011;10386;54.314;10.022;2023-12-20T16:29:21;25.30;;;5.87;;
20454;SDS011;10386;54.314;10.022;2023-12-20T16:31:49;17.17;;;4.80;;
20454;SDS011;10386;54.314;10.022;2023-12-20T16:34:21;25.07;;;5.63;;
20454;SDS011;10386;54.314;10.022;2023-12-20T16:36:54;22.37;;;5.33;;
20454;SDS011;10386;54.314;10.022;2023-12-20T16:39:22;18.87;;;5.70;;
20454;SDS011;10386;54.314;10.022;2023-12-20T16:41:50;20.53;;;5.37;;
20454;SDS011;10386;54.314;10.022;2023-12-20T16:44:17;29.33;;;5.73;;
20454;SDS011;10386;54.314;10.022;2023-12-20T16:46:49;16.77;;;5.13;;
20454;SDS011;10386;54.314;10.022;2023-12-20T16:49:22;26.60;;;5.63;;
20454;SDS011;10386;54.314;10.022;2023-12-20T16:51:54;23.43;;;5.30;;
20454;SDS011;10386;54.314;10.022;2023-12-20T16:54:23;19.50;;;5.63;;
20454;SDS011;10386;54.314;10.022;2023-12-20T16:56:50;20.27;;;5.30;;
20454;SDS011;10386;54.314;10.022;2023-12-20T16:59:18;28.10;;;5.53;;
20454;SDS011;10386;54.314;10.022;2023-12-20T17:01:45;27.67;;;6.30;;
20454;SDS011;10386;54.314;10.022;2023-12-20T17:04:15;22.70;;;5.83;;
20454;SDS011;10386;54.314;10.022;2023-12-20T17:06:42;22.17;;;5.67;;
20454;SDS011;10386;54.314;10.022;2023-12-20T17:09:10;26.07;;;6.07;;
20454;SDS011;10386;54.314;10.022;2023-12-20T17:11:43;22.70;;;6.10;;
20454;SDS011;10386;54.314;10.022;2023-12-20T17:14:10;24.43;;;6.37;;
20454;SDS011;10386;54.314;10.022;2023-12-20T17:16:39;24.23;;;5.77;;
20454;SDS011;10386;54.314;10.022;2023-12-20T17:22:45;25.20;;;6.97;;
20454;SDS011;10386;54.314;10.022;2023-12-20T17:25:15;17.03;;;5.00;;
20454;SDS011;10386;54.314;10.022;2023-12-20T17:27:43;22.67;;;6.27;;
20454;SDS011;10386;54.314;10.022;2023-12-20T17:30:12;19.43;;;5.30;;
20454;SDS011;10386;54.314;10.022;2023-12-20T17:32:39;16.20;;;5.13;;
20454;SDS011;10386;54.314;10.022;2023-12-20T17:35:07;24.27;;;4.33;;
20454;SDS011;10386;54.314;10.022;2023-12-20T17:37:34;30.97;;;5.40;;
20454;SDS011;10386;54.314;10.022;2023-12-20T17:40:01;18.07;;;4.37;;
20454;SDS011;10386;54.314;10.022;2023-12-20T17:42:28;17.03;;;4.77;;
20454;SDS011;10386;54.314;10.022;2023-12-20T17:44:55;19.17;;;4.20;;
20454;SDS011;10386;54.314;10.022;2023-12-20T17:47:23;19.97;;;4.53;;
20454;SDS011;10386;54.314;10.022;2023-12-20T17:49:49;18.90;;;4.43;;
20454;SDS011;10386;54.314;10.022;2023-12-20T17:52:16;17.33;;;4.10;;
20454;SDS011;10386;54.314;10.022;2023-12-20T17:54:43;11.37;;;4.50;;
20454;SDS011;10386;54.314;10.022;2023-12-20T17:57:10;20.33;;;4.30;;
20454;SDS011;10386;54.314;10.022;2023-12-20T17:59:36;15.70;;;4.03;;
20454;SDS011;10386;54.314;10.022;2023-12-20T18:02:06;20.27;;;4.80;;
20454;SDS011;10386;54.314;10.022;2023-12-20T18:04:33;13.17;;;3.80;;
20454;SDS011;10386;54.314;10.022;2023-12-20T18:07:00;16.77;;;4.30;;
20454;SDS011;10386;54.314;10.022;2023-12-20T18:09:27;16.73;;;4.40;;
20454;SDS011;10386;54.314;10.022;2023-12-20T18:11:54;19.20;;;4.10;;
20454;SDS011;10386;54.314;10.022;2023-12-20T18:14:22;20.30;;;3.93;;
20454;SDS011;10386;54.314;10.022;2023-12-20T18:16:50;21.40;;;4.00;;
20454;SDS011;10386;54.314;10.022;2023-12-20T18:19:20;28.90;;;4.53;;
20454;SDS011;10386;54.314;10.022;2023-12-20T18:21:48;15.17;;;3.67;;
20454;SDS011;10386;54.314;10.022;2023-12-20T18:24:15;17.13;;;4.07;;
20454;SDS011;10386;54.314;10.022;2023-12-20T18:26:42;14.97;;;3.60;;
20454;SDS011;10386;54.314;10.022;2023-12-20T18:29:09;15.33;;;3.60;;
20454;SDS011;10386;54.314;10.022;2023-12-20T18:31:36;16.90;;;3.50;;
20454;SDS011;10386;54.314;10.022;2023-12-20T18:34:03;16.40;;;3.53;;
20454;SDS011;10386;54.314;10.022;2023-12-20T18:36:33;7.57;;;2.77;;
20454;SDS011;10386;54.314;10.022;2023-12-20T18:39:00;17.50;;;3.00;;
20454;SDS011;10386;54.314;10.022;2023-12-20T18:41:31;15.20;;;3.17;;
20454;SDS011;10386;54.314;10.022;2023-12-20T18:44:05;17.27;;;3.00;;
20454;SDS011;10386;54.314;10.022;2023-12-20T18:46:43;15.97;;;3.50;;
20454;SDS011;10386;54.314;10.022;2023-12-20T18:49:58;17.03;;;3.07;;
20454;SDS011;10386;54.314;10.022;2023-12-20T18:52:38;17.93;;;2.93;;
20454;SDS011;10386;54.314;10.022;2023-12-20T18:55:42;10.77;;;2.40;;
20454;SDS011;10386;54.314;10.022;2023-12-20T18:58:35;9.33;;;2.17;;
20454;SDS011;10386;54.314;10.022;2023-12-20T19:01:38;10.17;;;2.70;;
20454;SDS011;10386;54.314;10.022;2023-12-20T19:04:41;14.13;;;2.37;;
20454;SDS011;10386;54.314;10.022;2023-12-20T19:07:49;13.60;;;3.23;;
20454;SDS011;10386;54.314;10.022;2023-12-20T19:11:02;8.03;;;2.53;;
20454;SDS011;10386;54.314;10.022;2023-12-20T19:13:34;13.53;;;2.63;;
20454;SDS011;10386;54.314;10.022;2023-12-20T19:16:01;12.10;;;2.90;;
20454;SDS011;10386;54.314;10.022;2023-12-20T19:18:33;6.97;;;2.17;;
20454;SDS011;10386;54.314;10.022;2023-12-20T19:21:10;6.97;;;2.33;;
20454;SDS011;10386;54.314;10.022;2023-12-20T19:24:59;16.17;;;2.70;;
20454;SDS011;10386;54.314;10.022;2023-12-20T19:27:47;9.20;;;2.30;;
20454;SDS011;10386;54.314;10.022;2023-12-20T19:30:54;7.97;;;1.80;;
20454;SDS011;10386;54.314;10.022;2023-12-20T19:33:48;11.53;;;1.97;;
20454;SDS011;10386;54.314;10.022;2023-12-20T19:36:42;5.13;;;1.77;;
20454;SDS011;10386;54.314;10.022;2023-12-20T19:39:34;10.33;;;2.27;;
20454;SDS011;10386;54.314;10.022;2023-12-20T19:42:12;12.43;;;2.27;;
20454;SDS011;10386;54.314;10.022;2023-12-20T19:44:50;8.30;;;2.10;;
20454;SDS011;10386;54.314;10.022;2023-12-20T19:47:22;7.20;;;2.13;;
20454;SDS011;10386;54.314;10.022;2023-12-20T19:50:12;12.43;;;2.83;;
20454;SDS011;10386;54.314;10.022;2023-12-20T19:52:40;14.57;;;3.77;;
20454;SDS011;10386;54.314;10.022;2023-12-20T19:55:07;8.97;;;2.07;;
20454;SDS011;10386;54.314;10.022;2023-12-20T19:57:34;9.00;;;2.13;;
20454;SDS011;10386;54.314;10.022;2023-12-20T20:00:01;9.47;;;1.93;;
20454;SDS011;10386;54.314;10.022;2023-12-20T20:02:28;10.67;;;2.53;;
20454;SDS011;10386;54.314;10.022;2023-12-20T20:04:56;12.73;;;2.20;;
20454;SDS011;10386;54.314;10.022;2023-12-20T20:07:23;12.33;;;2.30;;
20454;SDS011;10386;54.314;10.022;2023-12-20T20:09:51;7.63;;;2.30;;
20454;SDS011;10386;54.314;10.022;2023-12-20T20:12:19;14.60;;;2.63;;
20454;SDS011;10386;54.314;10.022;2023-12-20T20:14:45;14.10;;;2.93;;
20454;SDS011;10386;54.314;10.022;2023-12-20T20:17:12;13.20;;;2.10;;
20454;SDS011;10386;54.314;10.022;2023-12-20T20:19:39;18.63;;;2.80;;
20454;SDS011;10386;54.314;10.022;2023-12-20T20:22:06;11.87;;;2.83;;
20454;SDS011;10386;54.314;10.022;2023-12-20T20:24:33;11.77;;;2.80;;
20454;SDS011;10386;54.314;10.022;2023-12-20T20:27:00;9.57;;;2.20;;
20454;SDS011;10386;54.314;10.022;2023-12-20T20:29:27;15.70;;;2.73;;
20454;SDS011;10386;54.314;10.022;2023-12-20T20:31:54;11.13;;;2.67;;
20454;SDS011;10386;54.314;10.022;2023-12-20T20:34:21;11.67;;;3.23;;
20454;SDS011;10386;54.314;10.022;2023-12-20T20:36:48;15.50;;;2.20;;
20454;SDS011;10386;54.314;10.022;2023-12-20T20:39:15;22.93;;;3.20;;
20454;SDS011;10386;54.314;10.022;2023-12-20T20:41:45;14.97;;;2.80;;
20454;SDS011;10386;54.314;10.022;2023-12-20T20:44:11;16.17;;;2.77;;
20454;SDS011;10386;54.314;10.022;2023-12-20T20:46:38;14.67;;;3.40;;
20454;SDS011;10386;54.314;10.022;2023-12-20T20:49:06;18.03;;;2.63;;
20454;SDS011;10386;54.314;10.022;2023-12-20T20:51:33;14.67;;;2.80;;
20454;SDS011;10386;54.314;10.022;2023-12-20T20:54:00;13.93;;;2.70;;
20454;SDS011;10386;54.314;10.022;2023-12-20T20:56:41;16.60;;;3.30;;
20454;SDS011;10386;54.314;10.022;2023-12-20T20:59:08;20.80;;;3.40;;
20454;SDS011;10386;54.314;10.022;2023-12-20T21:01:41;13.83;;;3.47;;
20454;SDS011;10386;54.314;10.022;2023-12-20T21:04:33;11.60;;;3.40;;
20454;SDS011;10386;54.314;10.022;2023-12-20T21:07:09;16.20;;;3.37;;
20454;SDS011;10386;54.314;10.022;2023-12-20T21:10:04;14.57;;;3.70;;
20454;SDS011;10386;54.314;10.022;2023-12-20T21:12:40;18.00;;;3.63;;
20454;SDS011;10386;54.314;10.022;2023-12-20T21:15:30;16.13;;;3.67;;
20454;SDS011;10386;54.314;10.022;2023-12-20T21:18:27;8.87;;;2.90;;
20454;SDS011;10386;54.314;10.022;2023-12-20T21:21:09;9.00;;;3.43;;
20454;SDS011;10386;54.314;10.022;2023-12-20T21:23:52;14.30;;;3.33;;
20454;SDS011;10386;54.314;10.022;2023-12-20T21:26:36;16.97;;;3.77;;
20454;SDS011;10386;54.314;10.022;2023-12-20T21:29:33;8.20;;;3.60;;
20454;SDS011;10386;54.314;10.022;2023-12-20T21:32:05;8.97;;;3.50;;
20454;SDS011;10386;54.314;10.022;2023-12-20T21:34:44;11.50;;;3.40;;
20454;SDS011;10386;54.314;10.022;2023-12-20T21:37:18;14.50;;;3.37;;
20454;SDS011;10386;54.314;10.022;2023-12-20T21:39:48;9.47;;;3.20;;
20454;SDS011;10386;54.314;10.022;2023-12-20T21:42:37;11.03;;;3.07;;
20454;SDS011;10386;54.314;10.022;2023-12-20T21:45:27;9.50;;;3.17;;
20454;SDS011;10386;54.314;10.022;2023-12-20T21:48:31;5.43;;;3.00;;
20454;SDS011;10386;54.314;10.022;2023-12-20T21:51:47;8.50;;;2.50;;
20454;SDS011;10386;54.314;10.022;2023-12-20T21:54:46;10.97;;;2.83;;
20454;SDS011;10386;54.314;10.022;2023-12-20T21:58:04;8.27;;;2.57;;
20454;SDS011;10386;54.314;10.022;2023-12-20T22:00:52;9.97;;;2.60;;
20454;SDS011;10386;54.314;10.022;2023-12-20T22:03:41;10.13;;;2.40;;
20454;SDS011;10386;54.314;10.022;2023-12-20T22:06:08;10.20;;;3.13;;
20454;SDS011;10386;54.314;10.022;2023-12-20T22:08:35;9.67;;;2.67;;
20454;SDS011;10386;54.314;10.022;2023-12-20T22:11:02;6.80;;;3.00;;
20454;SDS011;10386;54.314;10.022;2023-12-20T22:13:29;15.20;;;3.90;;
20454;SDS011;10386;54.314;10.022;2023-12-20T22:15:58;13.53;;;3.10;;
20454;SDS011;10386;54.314;10.022;2023-12-20T22:18:24;7.43;;;2.73;;
20454;SDS011;10386;54.314;10.022;2023-12-20T22:20:52;14.47;;;4.87;;
20454;SDS011;10386;54.314;10.022;2023-12-20T22:23:19;10.53;;;3.40;;
20454;SDS011;10386;54.314;10.022;2023-12-20T22:25:46;13.10;;;3.17;;
20454;SDS011;10386;54.314;10.022;2023-12-20T22:28:13;12.93;;;3.37;;
20454;SDS011;10386;54.314;10.022;2023-12-20T22:30:40;10.47;;;2.77;;
20454;SDS011;10386;54.314;10.022;2023-12-20T22:33:07;12.77;;;3.10;;
20454;SDS011;10386;54.314;10.022;2023-12-20T22:35:34;7.73;;;2.50;;
20454;SDS011;10386;54.314;10.022;2023-12-20T22:38:01;7.63;;;2.70;;
20454;SDS011;10386;54.314;10.022;2023-12-20T22:40:28;9.47;;;2.73;;
20454;SDS011;10386;54.314;10.022;2023-12-20T22:42:55;8.03;;;2.37;;
20454;SDS011;10386;54.314;10.022;2023-12-20T22:45:22;10.07;;;2.50;;
20454;SDS011;10386;54.314;10.022;2023-12-20T22:47:50;9.90;;;2.77;;
20454;SDS011;10386;54.314;10.022;2023-12-20T22:50:18;13.67;;;2.80;;
20454;SDS011;10386;54.314;10.022;2023-12-20T22:52:45;10.97;;;3.43;;
20454;SDS011;10386;54.314;10.022;2023-12-20T22:55:11;9.87;;;3.00;;
20454;SDS011;10386;54.314;10.022;2023-12-20T22:57:38;10.03;;;3.27;;
20454;SDS011;10386;54.314;10.022;2023-12-20T23:00:05;8.57;;;3.50;;
20454;SDS011;10386;54.314;10.022;2023-12-20T23:02:36;10.37;;;3.97;;
20454;SDS011;10386;54.314;10.022;2023-12-20T23:05:03;10.37;;;4.17;;
20454;SDS011;10386;54.314;10.022;2023-12-20T23:07:31;10.70;;;4.60;;
20454;SDS011;10386;54.314;10.022;2023-12-20T23:09:57;7.73;;;3.90;;
20454;SDS011;10386;54.314;10.022;2023-12-20T23:12:25;13.00;;;4.40;;
20454;SDS011;10386;54.314;10.022;2023-12-20T23:14:51;8.77;;;4.40;;